Soure, Brazil
Current Conditions -  °F | °C
As of 10:00 PM on Wednesday 26 Nov 2014 (Local Time) from SBBE Reporting Station
Scattered Clouds Scattered Clouds  
Wind Chill: 81°   Ceiling: Unl
Heat Index: 85°   Visibility: 6mi
Dew Point: 72°   Wind: 12mph
Humidity: 74%   Direction: 80°E
Pressure: 29.83"   Gusts: NA
Location:  0.72°S, 48.52°W
Report Text: SBBE 270100Z 08010KT 9999 FEW030 SCT070 27/22 Q1010
Loading
Personal Weather Stations






























Interactive Weather Map New forecast layout! Learn more

10-Day Weather Forecast

Advertisements
Track Severe Weather on mobile